createdAt,value
2023-03-22T00:05:31.121Z,13.45
2023-03-22T00:07:59.755Z,12.30
2023-03-22T00:10:31.945Z,13.93
2023-03-22T00:12:59.705Z,14.30
2023-03-22T00:15:29.790Z,14.90
2023-03-22T00:17:59.199Z,14.00
2023-03-22T00:20:30.697Z,19.75
2023-03-22T00:22:58.873Z,11.93
2023-03-22T00:25:28.904Z,19.67
2023-03-22T00:27:56.634Z,22.30
2023-03-22T00:30:24.185Z,25.48
2023-03-22T00:32:53.536Z,19.48
2023-03-22T00:35:30.569Z,20.52
2023-03-22T00:38:06.206Z,22.77
2023-03-22T00:40:38.238Z,18.60
2023-03-22T00:43:06.082Z,21.20
2023-03-22T00:45:41.363Z,15.90
2023-03-22T00:48:12.226Z,12.75
2023-03-22T00:50:41.214Z,26.20
2023-03-22T00:53:09.439Z,17.25
2023-03-22T00:55:38.823Z,17.73
2023-03-22T00:58:06.429Z,19.00
2023-03-22T01:00:34.599Z,10.80
2023-03-22T01:03:09.884Z,18.48
2023-03-22T01:05:39.599Z,14.45
2023-03-22T01:08:12.985Z,12.60
2023-03-22T01:10:41.603Z,15.20
2023-03-22T01:13:10.289Z,16.42
2023-03-22T01:15:38.360Z,18.75
2023-03-22T01:18:11.118Z,17.45
2023-03-22T01:20:39.624Z,13.40
2023-03-22T01:23:07.655Z,16.05
2023-03-22T01:25:35.791Z,17.77
2023-03-22T01:28:03.440Z,16.25
2023-03-22T01:30:35.686Z,22.23
2023-03-22T01:33:03.658Z,18.40
2023-03-22T01:35:33.410Z,20.38
2023-03-22T01:38:07.068Z,19.80
2023-03-22T01:40:39.558Z,16.25
2023-03-22T01:43:14.325Z,16.25
2023-03-22T01:45:54.680Z,21.63
2023-03-22T01:48:46.418Z,19.77
2023-03-22T01:51:24.914Z,18.83
2023-03-22T01:54:17.888Z,20.60
2023-03-22T01:56:46.063Z,21.90
2023-03-22T01:59:22.536Z,23.33
2023-03-22T02:02:06.410Z,21.90
2023-03-22T02:04:36.894Z,19.38
2023-03-22T02:07:15.847Z,20.50
2023-03-22T02:09:53.237Z,22.05
2023-03-22T02:12:44.190Z,26.42
2023-03-22T02:16:04.321Z,30.55
2023-03-22T02:18:53.135Z,20.30
2023-03-22T02:21:39.548Z,22.13
2023-03-22T02:24:26.085Z,26.60
2023-03-22T02:26:59.627Z,21.30
2023-03-22T02:29:34.522Z,24.73
2023-03-22T02:32:03.947Z,22.15
2023-03-22T02:34:31.610Z,23.85
2023-03-22T02:37:19.726Z,23.85
2023-03-22T02:39:47.388Z,32.53
2023-03-22T02:42:15.212Z,27.75
2023-03-22T02:44:46.130Z,25.40
2023-03-22T02:47:23.423Z,21.95
2023-03-22T02:50:11.515Z,31.40
2023-03-22T02:52:45.767Z,24.13
2023-03-22T02:55:18.140Z,24.00
2023-03-22T02:58:06.863Z,26.35
2023-03-22T03:00:39.013Z,24.35
2023-03-22T03:03:11.508Z,26.27
2023-03-22T03:05:44.700Z,24.95
2023-03-22T03:08:16.507Z,22.65
2023-03-22T03:10:44.984Z,24.67
2023-03-22T03:13:14.190Z,22.88
2023-03-22T03:15:44.030Z,23.02
2023-03-22T03:18:24.185Z,24.40
2023-03-22T03:21:03.980Z,22.40
2023-03-22T03:23:43.747Z,23.60
2023-03-22T03:26:29.636Z,23.03
2023-03-22T03:28:57.519Z,18.42
2023-03-22T03:31:32.656Z,22.67
2023-03-22T03:34:01.884Z,19.98
2023-03-22T03:36:31.751Z,18.13
2023-03-22T03:38:59.765Z,23.52
2023-03-22T03:41:29.475Z,21.10
2023-03-22T03:43:58.571Z,20.25
2023-03-22T03:46:31.455Z,15.43
2023-03-22T03:49:00.008Z,18.85
2023-03-22T03:51:28.419Z,15.35
2023-03-22T03:53:56.443Z,16.30
2023-03-22T03:56:25.488Z,21.13
2023-03-22T03:58:53.799Z,18.63
2023-03-22T04:01:24.273Z,15.65
2023-03-22T04:04:27.458Z,15.07
2023-03-22T04:07:04.875Z,17.58
2023-03-22T04:09:35.601Z,16.63
2023-03-22T04:12:32.454Z,15.30
2023-03-22T04:15:22.766Z,15.73
2023-03-22T04:17:55.558Z,16.00
2023-03-22T04:20:27.261Z,13.27
2023-03-22T04:22:55.047Z,13.75
2023-03-22T04:25:24.145Z,18.25
2023-03-22T04:28:04.506Z,23.40
2023-03-22T04:30:39.125Z,10.65
2023-03-22T04:33:17.185Z,13.88
2023-03-22T04:36:10.442Z,15.88
2023-03-22T04:38:52.847Z,14.10
2023-03-22T04:41:24.136Z,13.20
2023-03-22T04:43:54.824Z,14.80
2023-03-22T04:46:24.583Z,12.80
2023-03-22T04:49:02.946Z,16.30
2023-03-22T04:51:34.968Z,15.35
2023-03-22T04:54:23.900Z,12.93
2023-03-22T04:56:52.560Z,15.68
2023-03-22T04:59:25.914Z,12.23
2023-03-22T05:01:54.482Z,15.82
2023-03-22T05:04:27.345Z,15.25
2023-03-22T05:07:02.193Z,11.70
2023-03-22T05:09:43.721Z,16.83
2023-03-22T05:12:12.433Z,15.65
2023-03-22T05:14:48.066Z,15.45
2023-03-22T05:17:19.412Z,19.65
2023-03-22T05:19:47.792Z,16.85
2023-03-22T05:22:15.758Z,15.05
2023-03-22T05:24:49.569Z,8.95
2023-03-22T05:27:31.506Z,12.82
2023-03-22T05:30:12.146Z,16.60
2023-03-22T05:32:49.724Z,11.75
2023-03-22T05:35:19.836Z,13.25
2023-03-22T05:37:53.586Z,15.85
2023-03-22T05:40:23.202Z,15.77
2023-03-22T05:42:55.373Z,14.02
2023-03-22T05:45:27.204Z,11.25
2023-03-22T05:48:06.950Z,16.45
2023-03-22T05:50:35.750Z,12.23
2023-03-22T05:53:04.210Z,12.77
2023-03-22T05:55:45.121Z,12.85
2023-03-22T05:58:19.397Z,17.55
2023-03-22T06:00:52.779Z,15.48
2023-03-22T06:03:53.536Z,14.50
2023-03-22T06:06:33.624Z,13.55
2023-03-22T06:09:16.938Z,15.75
2023-03-22T06:11:52.457Z,13.60
2023-03-22T06:14:23.716Z,16.58
2023-03-22T06:17:02.295Z,16.13
2023-03-22T06:19:31.303Z,13.73
2023-03-22T06:22:02.825Z,14.40
2023-03-22T06:24:32.595Z,14.38
2023-03-22T06:27:00.664Z,13.00
2023-03-22T06:29:29.411Z,11.70
2023-03-22T06:32:01.943Z,15.68
2023-03-22T06:34:31.302Z,12.65
2023-03-22T06:36:59.266Z,13.98
2023-03-22T06:39:40.156Z,11.75
2023-03-22T06:42:19.830Z,13.32
2023-03-22T06:44:58.490Z,16.88
2023-03-22T06:47:29.651Z,14.93
2023-03-22T06:50:18.004Z,13.02
2023-03-22T06:53:09.283Z,10.20
2023-03-22T06:55:41.699Z,13.93
2023-03-22T06:58:19.613Z,14.23
2023-03-22T07:00:47.405Z,13.30
2023-03-22T07:03:18.834Z,11.82
2023-03-22T07:05:52.140Z,17.13
2023-03-22T07:08:45.883Z,12.65
2023-03-22T07:11:17.731Z,15.23
2023-03-22T07:14:04.640Z,9.27
2023-03-22T07:20:53.809Z,14.18
2023-03-22T07:23:25.166Z,13.43
2023-03-22T07:25:56.230Z,15.68
2023-03-22T07:28:29.710Z,15.48
2023-03-22T07:31:13.138Z,18.50
2023-03-22T07:34:05.324Z,21.25
2023-03-22T07:37:03.138Z,14.70
2023-03-22T07:39:31.903Z,15.20
2023-03-22T07:42:00.199Z,17.73
2023-03-22T07:44:49.962Z,12.52
2023-03-22T07:47:41.617Z,12.75
2023-03-22T07:50:18.926Z,15.35
2023-03-22T07:52:51.249Z,16.27
2023-03-22T07:55:19.629Z,17.83
2023-03-22T07:57:47.656Z,13.18
2023-03-22T08:00:15.770Z,11.75
2023-03-22T08:02:46.055Z,12.63
2023-03-22T08:05:32.463Z,17.02
2023-03-22T08:08:03.201Z,17.70
2023-03-22T08:10:33.076Z,17.10
2023-03-22T08:13:01.672Z,18.02
2023-03-22T08:15:29.475Z,11.63
2023-03-22T08:17:58.236Z,19.27
2023-03-22T08:20:34.384Z,15.63
2023-03-22T08:23:11.375Z,12.18
2023-03-22T08:25:48.802Z,19.17
2023-03-22T08:28:16.871Z,17.55
2023-03-22T08:30:45.866Z,18.83
2023-03-22T08:33:14.316Z,16.80
2023-03-22T08:35:45.294Z,20.80
2023-03-22T08:38:13.633Z,14.60
2023-03-22T08:40:48.665Z,13.10
2023-03-22T08:43:20.328Z,18.60
2023-03-22T08:45:48.921Z,14.35
2023-03-22T08:48:21.363Z,20.58
2023-03-22T08:51:23.034Z,14.85
2023-03-22T08:54:04.872Z,22.25
2023-03-22T08:56:51.957Z,15.00
2023-03-22T08:59:38.539Z,9.65
2023-03-22T09:02:27.041Z,13.50
2023-03-22T09:04:55.873Z,18.10
2023-03-22T09:07:24.431Z,15.23
2023-03-22T09:10:04.855Z,15.68
2023-03-22T09:12:34.574Z,15.00
2023-03-22T09:15:03.076Z,11.50
2023-03-22T09:17:31.901Z,10.38
2023-03-22T09:20:11.433Z,13.60
2023-03-22T09:22:41.040Z,19.30
2023-03-22T09:25:12.815Z,16.27
2023-03-22T09:27:44.321Z,14.52
2023-03-22T09:30:12.744Z,16.20
2023-03-22T09:32:40.921Z,12.10
2023-03-22T09:37:59.093Z,16.70
2023-03-22T09:40:29.368Z,11.10
2023-03-22T09:45:33.408Z,12.68
2023-03-22T09:48:01.685Z,13.27
2023-03-22T09:50:31.333Z,16.48
2023-03-22T09:52:59.706Z,12.17
2023-03-22T09:55:37.451Z,10.77
2023-03-22T09:58:17.816Z,13.05
2023-03-22T10:00:48.676Z,13.32
2023-03-22T10:03:27.736Z,14.25
2023-03-22T10:06:05.957Z,15.38
2023-03-22T10:08:52.869Z,13.93
2023-03-22T10:11:21.347Z,11.88
2023-03-22T10:14:09.695Z,9.75
2023-03-22T10:16:37.260Z,12.65
2023-03-22T10:19:29.849Z,7.95
2023-03-22T10:22:00.021Z,11.45
2023-03-22T10:24:30.952Z,11.90
2023-03-22T10:26:58.582Z,10.40
2023-03-22T10:29:44.532Z,17.50
2023-03-22T10:32:28.044Z,13.15
2023-03-22T10:34:55.825Z,12.48
2023-03-22T10:37:25.686Z,10.43
2023-03-22T10:39:57.700Z,8.55
2023-03-22T10:42:27.498Z,13.88
2023-03-22T10:44:57.133Z,16.50
2023-03-22T10:47:44.927Z,10.67
2023-03-22T10:50:23.038Z,13.43
2023-03-22T10:53:11.268Z,11.13
2023-03-22T10:55:43.027Z,13.32
2023-03-22T10:58:19.652Z,15.20
2023-03-22T11:00:49.379Z,18.95
2023-03-22T11:03:27.837Z,19.98
2023-03-22T11:05:59.978Z,14.50
2023-03-22T11:08:27.909Z,12.68
2023-03-22T11:11:09.515Z,14.45
2023-03-22T11:13:38.289Z,15.82
2023-03-22T11:16:06.608Z,14.55
2023-03-22T11:18:36.234Z,11.93
2023-03-22T11:21:10.717Z,9.20
2023-03-22T11:23:41.614Z,11.48
2023-03-22T11:26:13.781Z,16.48
2023-03-22T11:28:49.850Z,17.40
2023-03-22T11:31:24.783Z,15.23
2023-03-22T11:33:57.151Z,14.85
2023-03-22T11:36:25.462Z,13.63
2023-03-22T11:39:04.189Z,11.60
2023-03-22T11:41:33.095Z,12.82
2023-03-22T11:44:03.215Z,15.85
2023-03-22T11:46:31.754Z,11.93
2023-03-22T11:49:01.955Z,12.23
2023-03-22T11:51:32.756Z,10.80
2023-03-22T11:56:35.185Z,16.77
2023-03-22T11:59:10.085Z,8.82
2023-03-22T12:01:52.520Z,13.23
2023-03-22T12:04:23.121Z,14.35
2023-03-22T12:06:54.131Z,10.35
2023-03-22T12:09:48.113Z,13.40
2023-03-22T12:12:18.361Z,15.98
2023-03-22T12:15:04.353Z,11.27
2023-03-22T12:17:51.883Z,11.73
2023-03-22T12:20:23.302Z,10.90
2023-03-22T12:22:53.589Z,12.77
2023-03-22T12:25:26.108Z,11.18
2023-03-22T12:27:56.096Z,12.05
2023-03-22T12:30:25.214Z,15.30
2023-03-22T12:33:16.472Z,10.73
2023-03-22T12:35:45.759Z,6.72
2023-03-22T12:38:52.697Z,12.85
2023-03-22T12:41:27.853Z,7.32
2023-03-22T12:43:57.887Z,11.73
2023-03-22T12:46:41.306Z,6.38
2023-03-22T12:49:37.441Z,8.73
2023-03-22T12:52:13.016Z,9.07
2023-03-22T12:54:43.089Z,9.55
2023-03-22T12:57:11.532Z,5.70
2023-03-22T12:59:39.377Z,9.43
2023-03-22T13:02:28.287Z,13.35
2023-03-22T13:04:58.528Z,16.42
2023-03-22T13:07:32.055Z,8.93
2023-03-22T13:10:02.379Z,12.82
2023-03-22T13:14:59.712Z,12.45
2023-03-22T13:17:27.587Z,9.38
2023-03-22T13:20:08.060Z,13.45
2023-03-22T13:25:08.877Z,8.30
2023-03-22T13:27:38.544Z,12.13
2023-03-22T13:30:10.765Z,7.38
2023-03-22T13:32:39.718Z,8.98
2023-03-22T13:35:22.703Z,14.05
2023-03-22T13:37:55.160Z,6.97
2023-03-22T13:40:36.582Z,11.60
2023-03-22T13:43:16.502Z,10.50
2023-03-22T13:46:26.298Z,13.90
2023-03-22T13:48:56.436Z,8.37
2023-03-22T13:51:29.409Z,12.82
2023-03-22T13:54:18.225Z,9.18
2023-03-22T13:56:53.550Z,8.25
2023-03-22T13:59:24.908Z,7.93
2023-03-22T14:02:13.275Z,16.85
2023-03-22T14:04:57.009Z,9.68
2023-03-22T14:07:38.538Z,7.43
2023-03-22T14:10:14.118Z,8.52
2023-03-22T14:12:57.109Z,7.57
2023-03-22T14:15:27.200Z,7.88
2023-03-22T14:18:09.067Z,16.77
2023-03-22T14:20:38.179Z,11.02
